Time;durP1;ratioP1;P1;durP2;ratioP2;P2;SDS_P1;SDS_P2;PMS_P1;PMS_P2;Temp;Humidity;BMP_temperature;BMP_pressure;BME280_temperature;BME280_humidity;BME280_pressure;Samples;Min_cycle;Max_cycle;Signal;HPM_P1;HPM_P2
2021/12/27 00:01:06;;;;;;;;;;;7.10;99.90;;;;;;6274990;22;20031;-70
2021/12/27 00:03:32;;;;;;;101.32;29.55;;;7.00;99.90;;;;;;6301411;22;19903;-69
2021/12/27 00:05:57;;;;;;;86.32;27.08;;;7.10;99.90;;;;;;6298935;22;20074;-70
2021/12/27 00:08:23;;;;;;;104.60;30.98;;;7.20;99.90;;;;;;6304958;22;20004;-69
2021/12/27 00:10:50;;;;;;;110.25;32.42;;;7.30;99.90;;;;;;6305617;22;20007;-69
2021/12/27 00:13:15;;;;;;;102.53;31.02;;;7.20;99.90;;;;;;6306337;22;20057;-69
2021/12/27 00:15:43;;;;;;;90.32;32.03;;;7.20;99.90;;;;;;6306674;22;20015;-70
2021/12/27 00:18:09;;;;;;;314.27;37.90;;;7.30;99.90;;;;;;6305724;22;20466;-68
2021/12/27 00:20:35;;;;;;;110.68;34.08;;;7.30;99.90;;;;;;6305151;22;20000;-68
2021/12/27 00:23:01;;;;;;;89.07;32.70;;;7.20;99.90;;;;;;6278032;22;20054;-70
2021/12/27 00:25:29;;;;;;;97.25;30.08;;;7.40;99.90;;;;;;6305113;22;20376;-69
2021/12/27 00:27:55;;;;;;;108.40;30.33;;;7.40;99.90;;;;;;6278738;22;20021;-69
2021/12/27 00:30:21;;;;;;;95.45;31.48;;;7.40;99.90;;;;;;6304248;22;20026;-69
2021/12/27 00:32:48;;;;;;;;;;;7.50;99.90;;;;;;6304992;22;19996;-69
2021/12/27 00:35:15;;;;;;;76.18;31.63;;;7.50;99.90;;;;;;6303580;22;19907;-69
2021/12/27 00:37:41;;;;;;;0.50;0.22;;;7.50;99.90;;;;;;6302144;22;20008;-69
2021/12/27 00:40:09;;;;;;;100.03;30.35;;;7.50;99.90;;;;;;6303647;22;20003;-69
2021/12/27 00:42:35;;;;;;;82.07;29.90;;;7.50;99.90;;;;;;6302161;22;20494;-68
2021/12/27 00:45:01;;;;;;;78.60;29.33;;;7.50;99.90;;;;;;6305487;22;20084;-69
2021/12/27 00:47:26;;;;;;;70.88;28.42;;;7.50;99.90;;;;;;6303965;22;20003;-70
2021/12/27 00:49:52;;;;;;;73.50;28.27;;;7.60;99.90;;;;;;6305992;22;20441;-69
2021/12/27 00:52:18;;;;;;;69.60;26.77;;;7.60;99.90;;;;;;6304289;22;20175;-70
2021/12/27 00:54:44;;;;;;;78.78;27.52;;;7.60;99.90;;;;;;6304779;22;20396;-68
2021/12/27 00:57:09;;;;;;;72.50;27.15;;;7.60;99.90;;;;;;6305172;22;20007;-68
2021/12/27 00:59:35;;;;;;;75.07;28.90;;;7.50;99.90;;;;;;6302556;22;20007;-68
2021/12/27 01:02:01;;;;;;;74.07;28.02;;;7.50;99.90;;;;;;6277692;22;20057;-69
2021/12/27 01:04:27;;;;;;;68.20;27.15;;;7.50;99.90;;;;;;6304098;22;20405;-69
2021/12/27 01:06:52;;;;;;;68.05;26.65;;;7.60;99.90;;;;;;6304196;22;20007;-70
2021/12/27 01:12:27;;;;;;;73.05;28.10;;;7.60;99.90;;;;;;6271508;22;20026;-68
2021/12/27 01:15:34;;;;;;;66.68;27.55;;;7.60;99.90;;;;;;6306598;22;20076;-68
2021/12/27 01:17:58;;;;;;;88.75;26.10;;;7.60;99.90;;;;;;6302906;22;19999;-69
2021/12/27 01:20:24;;;;;;;62.67;26.25;;;7.60;99.90;;;;;;6303134;22;19991;-69
2021/12/27 01:22:51;;;;;;;70.22;28.98;;;7.60;99.90;;;;;;6306547;22;20083;-70
2021/12/27 01:25:18;;;;;;;76.13;25.65;;;7.60;99.90;;;;;;6306226;22;20003;-69
2021/12/27 01:27:44;;;;;;;64.95;25.25;;;7.70;99.90;;;;;;6277108;22;20026;-71
2021/12/27 01:30:15;;;;;;;57.00;22.05;;;7.70;99.90;;;;;;6306741;22;20457;-69
2021/12/27 01:32:47;;;;;;;66.35;24.80;;;7.80;99.90;;;;;;6304449;22;20450;-69
2021/12/27 01:35:13;;;;;;;65.97;24.27;;;7.70;99.90;;;;;;6308094;22;20006;-70
2021/12/27 01:37:39;;;;;;;;;;;7.80;99.90;;;;;;6306814;22;20039;-70
2021/12/27 01:40:06;;;;;;;63.42;23.75;;;7.80;99.90;;;;;;6304111;22;19899;-69
2021/12/27 01:42:32;;;;;;;60.67;22.50;;;7.80;99.90;;;;;;6306294;22;20067;-68
2021/12/27 01:44:58;;;;;;;57.63;21.65;;;7.90;99.90;;;;;;6304558;22;20053;-69
2021/12/27 01:47:23;;;;;;;68.95;22.75;;;8.00;99.90;;;;;;6276380;22;20056;-69
2021/12/27 01:49:49;;;;;;;69.82;22.77;;;7.90;99.90;;;;;;6306760;22;20015;-69
2021/12/27 01:52:15;;;;;;;58.00;21.42;;;8.00;99.90;;;;;;6281449;22;20039;-70
2021/12/27 01:54:41;;;;;;;57.55;21.65;;;8.00;99.90;;;;;;6309844;22;20079;-70
2021/12/27 01:57:07;;;;;;;52.95;20.83;;;8.10;99.90;;;;;;6309731;22;20419;-69
2021/12/27 01:59:34;;;;;;;61.55;21.23;;;8.10;99.90;;;;;;6307115;22;19999;-68
2021/12/27 02:01:59;;;;;;;56.13;18.50;;;8.20;99.90;;;;;;6308660;22;19991;-69
2021/12/27 02:04:25;;;;;;;41.75;16.73;;;8.30;99.90;;;;;;6308539;22;20005;-68
2021/12/27 02:06:51;;;;;;;45.65;16.25;;;8.40;99.90;;;;;;6278177;22;20000;-70
2021/12/27 02:09:31;;;;;;;47.92;18.67;;;8.30;99.90;;;;;;6307629;22;20050;-69
2021/12/27 02:11:58;;;;;;;55.33;19.70;;;8.30;99.90;;;;;;6306793;22;20003;-69
2021/12/27 02:14:23;;;;;;;46.25;16.95;;;8.30;99.90;;;;;;6252591;22;20007;-69
2021/12/27 02:16:49;;;;;;;50.15;18.63;;;8.20;99.90;;;;;;6306447;22;20117;-68
2021/12/27 02:19:15;;;;;;;52.45;18.60;;;8.20;99.90;;;;;;6253912;22;20089;-68
2021/12/27 02:21:40;;;;;;;51.03;19.17;;;8.30;99.90;;;;;;6307745;22;19996;-68
2021/12/27 02:24:08;;;;;;;54.10;19.10;;;8.30;99.90;;;;;;6308485;22;20027;-68
2021/12/27 02:26:33;;;;;;;50.75;19.02;;;8.30;99.90;;;;;;6307577;22;20006;-68
2021/12/27 02:28:59;;;;;;;52.35;17.70;;;8.40;99.90;;;;;;6308786;22;20090;-69
2021/12/27 02:31:27;;;;;;;43.35;19.67;;;8.40;99.90;;;;;;6307234;22;19999;-71
2021/12/27 02:33:52;;;;;;;49.92;20.38;;;8.40;99.90;;;;;;6306255;22;20382;-69
2021/12/27 02:36:19;;;;;;;56.65;20.23;;;8.40;99.90;;;;;;6306418;22;19995;-70
2021/12/27 02:38:46;;;;;;;49.17;18.98;;;8.40;99.90;;;;;;6306723;22;19999;-70
2021/12/27 02:41:12;;;;;;;47.90;20.75;;;8.40;99.90;;;;;;6306965;22;20450;-71
2021/12/27 02:43:41;;;;;;;36.97;14.25;;;8.50;99.90;;;;;;6307797;22;19999;-69
2021/12/27 02:46:10;;;;;;;37.95;13.80;;;8.50;99.90;;;;;;6307225;22;20025;-68
2021/12/27 02:48:48;;;;;;;41.50;16.30;;;8.50;99.90;;;;;;6307583;22;20058;-68
2021/12/27 02:51:17;;;;;;;31.58;16.67;;;8.50;99.90;;;;;;6305387;22;20078;-68
2021/12/27 02:53:44;;;;;;;39.55;23.65;;;8.60;99.90;;;;;;6306113;22;20046;-67
2021/12/27 02:56:10;;;;;;;38.38;32.03;;;8.50;99.90;;;;;;6305671;22;20315;-69
2021/12/27 02:58:36;;;;;;;25.23;14.90;;;8.60;99.90;;;;;;6305899;22;20003;-68
2021/12/27 03:01:09;;;;;;;34.85;17.77;;;8.60;99.90;;;;;;6305577;22;19999;-69
2021/12/27 03:03:36;;;;;;;52.13;32.00;;;8.70;99.90;;;;;;6308294;22;20358;-69
2021/12/27 03:06:03;;;;;;;40.33;21.98;;;8.70;99.90;;;;;;6306590;22;20377;-68
2021/12/27 03:08:29;;;;;;;36.20;13.55;;;8.70;99.90;;;;;;6307767;22;20062;-69
2021/12/27 03:10:58;;;;;;;6.72;4.22;;;8.60;99.90;;;;;;6307906;22;19999;-69
2021/12/27 03:13:29;;;;;;;13.32;11.90;;;8.60;99.90;;;;;;6305535;22;20056;-69
2021/12/27 03:15:58;;;;;;;26.23;13.20;;;8.70;99.90;;;;;;6305022;22;20016;-69
2021/12/27 03:18:24;;;;;;;3.00;2.78;;;8.80;99.90;;;;;;6306571;22;20030;-69
2021/12/27 03:20:51;;;;;;;3.58;3.30;;;8.80;99.90;;;;;;6302536;22;20002;-68
2021/12/27 03:23:17;;;;;;;8.73;7.88;;;8.80;99.90;;;;;;6307336;22;20055;-69
2021/12/27 03:25:43;;;;;;;3.40;2.35;;;8.80;99.90;;;;;;6305376;22;20038;-68
2021/12/27 03:28:08;;;;;;;6.65;6.13;;;8.80;99.90;;;;;;6278043;22;20014;-69
2021/12/27 03:30:35;;;;;;;3.25;2.95;;;8.80;99.90;;;;;;6306033;22;20002;-69
2021/12/27 03:33:03;;;;;;;0.00;0.00;;;8.80;99.90;;;;;;6305768;22;19999;-69
2021/12/27 03:35:35;;;;;;;0.00;0.00;;;8.80;99.90;;;;;;6305772;22;20007;-69
2021/12/27 03:38:02;;;;;;;0.00;0.00;;;8.90;99.90;;;;;;6307282;22;20083;-69
2021/12/27 03:40:28;;;;;;;0.00;0.00;;;8.90;99.90;;;;;;6305946;22;20040;-68
2021/12/27 03:42:55;;;;;;;0.00;0.00;;;9.00;99.90;;;;;;6306346;22;20038;-69
2021/12/27 03:45:26;;;;;;;0.00;0.00;;;9.10;99.90;;;;;;6306170;22;20003;-69
2021/12/27 03:47:52;;;;;;;0.00;0.00;;;9.10;99.90;;;;;;6306681;22;20054;-69
2021/12/27 03:50:18;;;;;;;;;;;9.00;99.90;;;;;;6309018;22;20500;-69
2021/12/27 03:52:44;;;;;;;0.00;0.00;;;9.00;99.90;;;;;;6308218;22;19899;-70
2021/12/27 03:55:12;;;;;;;0.00;0.00;;;9.00;99.90;;;;;;6311475;22;20007;-68
2021/12/27 03:57:41;;;;;;;0.00;0.00;;;9.10;99.90;;;;;;6308934;22;20042;-68
2021/12/27 04:02:51;;;;;;;0.00;0.00;;;9.10;99.90;;;;;;6309013;22;20107;-69
2021/12/27 04:05:18;;;;;;;0.00;0.00;;;9.00;99.90;;;;;;6306373;22;20085;-70
2021/12/27 04:07:46;;;;;;;0.00;0.00;;;8.90;99.90;;;;;;6307163;22;19999;-70
2021/12/27 04:10:12;;;;;;;0.00;0.00;;;8.90;99.90;;;;;;6307329;22;20014;-69
2021/12/27 04:12:38;;;;;;;0.00;0.00;;;9.00;99.90;;;;;;6306275;22;19995;-69
2021/12/27 04:15:06;;;;;;;;;;;9.10;99.90;;;;;;6307149;22;20177;-69
2021/12/27 04:17:31;;;;;;;;;;;8.90;99.90;;;;;;6307452;22;19903;-68
2021/12/27 04:19:57;;;;;;;0.00;0.00;;;8.80;99.90;;;;;;6305550;22;19909;-68
2021/12/27 04:22:23;;;;;;;0.00;0.00;;;8.60;99.90;;;;;;6307134;22;20449;-69
2021/12/27 04:24:49;;;;;;;0.00;0.00;;;8.50;99.90;;;;;;6306327;22;20019;-70
2021/12/27 04:27:16;;;;;;;0.00;0.00;;;8.40;99.90;;;;;;6306725;22;19998;-70
2021/12/27 04:29:42;;;;;;;0.00;0.00;;;8.40;99.90;;;;;;6307306;22;20078;-69
2021/12/27 04:32:08;;;;;;;0.00;0.00;;;8.40;99.90;;;;;;6304819;22;20027;-70
2021/12/27 04:34:34;;;;;;;0.00;0.00;;;8.30;99.90;;;;;;6311122;22;20055;-69
2021/12/27 04:37:00;;;;;;;0.00;0.00;;;8.30;99.90;;;;;;6309773;22;19999;-69
2021/12/27 04:39:26;;;;;;;0.00;0.00;;;8.30;99.90;;;;;;6306625;22;20045;-67
2021/12/27 04:41:52;;;;;;;;;;;8.30;99.90;;;;;;6307967;22;20078;-70
2021/12/27 04:44:18;;;;;;;0.00;0.00;;;8.30;99.90;;;;;;6307515;22;19933;-68
2021/12/27 04:46:44;;;;;;;0.00;0.00;;;8.40;99.90;;;;;;6304801;22;20003;-67
2021/12/27 04:49:09;;;;;;;0.00;0.00;;;8.40;99.90;;;;;;6279710;22;20438;-69
2021/12/27 04:51:35;;;;;;;0.00;0.00;;;8.40;99.90;;;;;;6304919;22;20045;-70
2021/12/27 04:54:00;;;;;;;0.00;0.00;;;8.50;99.90;;;;;;6280926;22;20011;-69
2021/12/27 04:56:26;;;;;;;0.00;0.00;;;8.50;99.90;;;;;;6279560;22;20003;-68
2021/12/27 04:58:52;;;;;;;0.00;0.00;;;8.50;99.90;;;;;;6307124;22;20382;-68
2021/12/27 05:01:18;;;;;;;0.00;0.00;;;8.50;99.90;;;;;;6306707;22;19999;-68
2021/12/27 05:03:44;;;;;;;0.00;0.00;;;8.60;99.90;;;;;;6280527;22;20084;-69
2021/12/27 05:06:13;;;;;;;;;;;8.80;99.90;;;;;;6306408;22;20021;-69
2021/12/27 05:08:39;;;;;;;0.00;0.00;;;8.80;99.90;;;;;;6304555;22;19911;-69
2021/12/27 05:11:04;;;;;;;0.00;0.00;;;8.70;99.90;;;;;;6308468;22;20002;-68
2021/12/27 05:13:32;;;;;;;0.00;0.00;;;8.80;99.90;;;;;;6279342;22;20003;-68
2021/12/27 05:15:59;;;;;;;0.00;0.00;;;8.90;99.90;;;;;;6306951;22;20269;-69
2021/12/27 05:18:25;;;;;;;0.00;0.00;;;8.90;99.90;;;;;;6307752;22;20000;-68
2021/12/27 05:20:50;;;;;;;0.00;0.00;;;8.90;99.90;;;;;;6305594;22;20006;-68
2021/12/27 05:23:16;;;;;;;0.00;0.00;;;9.00;99.90;;;;;;6306493;22;20000;-69
2021/12/27 05:25:42;;;;;;;0.00;0.00;;;8.90;99.90;;;;;;6305989;22;20310;-69
2021/12/27 05:28:09;;;;;;;0.00;0.00;;;9.00;99.90;;;;;;6306400;22;19999;-68
2021/12/27 05:30:35;;;;;;;0.00;0.00;;;9.00;99.90;;;;;;6279843;22;20006;-69
2021/12/27 05:33:02;;;;;;;0.00;0.00;;;9.10;99.90;;;;;;6307547;22;20451;-69
2021/12/27 05:35:28;;;;;;;0.00;0.00;;;9.10;99.90;;;;;;6309512;22;20010;-68
2021/12/27 05:37:54;;;;;;;0.00;0.00;;;9.10;99.90;;;;;;6310711;22;20378;-68
2021/12/27 05:40:22;;;;;;;0.00;0.00;;;9.10;99.90;;;;;;6308150;22;20364;-69
2021/12/27 05:42:51;;;;;;;0.00;0.00;;;9.20;99.90;;;;;;6309469;22;20070;-68
2021/12/27 05:45:17;;;;;;;0.00;0.00;;;9.20;99.90;;;;;;6307959;22;19995;-68
2021/12/27 05:47:44;;;;;;;0.00;0.00;;;9.20;99.90;;;;;;6308106;22;19995;-68
2021/12/27 05:50:11;;;;;;;0.00;0.00;;;9.40;99.90;;;;;;6307121;22;20026;-69
2021/12/27 05:52:37;;;;;;;0.00;0.00;;;9.40;99.90;;;;;;6304720;22;20009;-67
2021/12/27 05:55:08;;;;;;;0.00;0.00;;;9.40;99.90;;;;;;6308211;22;20055;-67
2021/12/27 05:57:34;;;;;;;0.00;0.00;;;9.40;99.90;;;;;;6306865;22;19999;-69
2021/12/27 06:00:00;;;;;;;0.00;0.00;;;9.40;99.90;;;;;;6306237;22;19996;-69
2021/12/27 06:02:25;;;;;;;0.00;0.00;;;9.40;99.90;;;;;;6307442;22;19999;-68
2021/12/27 06:04:51;;;;;;;0.00;0.00;;;9.30;99.90;;;;;;6307255;22;20057;-67
2021/12/27 06:07:17;;;;;;;0.00;0.00;;;9.40;99.90;;;;;;6278537;22;20002;-68
2021/12/27 06:09:43;;;;;;;0.00;0.00;;;9.40;99.90;;;;;;6307904;22;20018;-68
2021/12/27 06:12:10;;;;;;;0.00;0.00;;;9.50;99.90;;;;;;6307966;22;20535;-69
2021/12/27 06:14:35;;;;;;;0.00;0.00;;;9.50;99.90;;;;;;6310383;22;20003;-68
2021/12/27 06:17:01;;;;;;;0.00;0.00;;;9.50;99.90;;;;;;6311060;22;20023;-68
2021/12/27 06:19:27;;;;;;;0.00;0.00;;;9.40;99.90;;;;;;6308822;22;20398;-67
2021/12/27 06:21:53;;;;;;;0.00;0.00;;;9.40;99.90;;;;;;6307252;22;20002;-68
2021/12/27 06:24:19;;;;;;;0.00;0.00;;;9.40;99.90;;;;;;6307026;22;20019;-69
2021/12/27 06:26:45;;;;;;;0.00;0.00;;;9.30;99.90;;;;;;6306739;22;20003;-70
2021/12/27 06:29:11;;;;;;;0.00;0.00;;;9.30;99.90;;;;;;6308920;22;20003;-68
2021/12/27 06:31:36;;;;;;;0.00;0.00;;;9.50;99.90;;;;;;6308252;22;20003;-69
2021/12/27 06:34:03;;;;;;;0.00;0.00;;;9.40;99.90;;;;;;6306715;22;20010;-69
2021/12/27 06:36:29;;;;;;;0.00;0.00;;;9.50;99.90;;;;;;6306720;22;20023;-68
2021/12/27 06:38:55;;;;;;;0.00;0.00;;;9.50;99.90;;;;;;6308156;22;20504;-69
2021/12/27 06:41:24;;;;;;;0.00;0.00;;;9.60;99.90;;;;;;6307979;22;19995;-67
2021/12/27 06:43:53;;;;;;;0.00;0.00;;;9.70;99.90;;;;;;6308553;22;20002;-69
2021/12/27 06:46:19;;;;;;;0.00;0.00;;;9.60;99.90;;;;;;6307237;22;20003;-70
2021/12/27 06:48:44;;;;;;;0.00;0.00;;;9.60;99.90;;;;;;6308154;22;20091;-68
2021/12/27 06:51:10;;;;;;;0.00;0.00;;;9.60;99.90;;;;;;6307610;22;19995;-68
2021/12/27 06:53:36;;;;;;;0.00;0.00;;;9.50;99.90;;;;;;6304966;22;19998;-68
2021/12/27 06:56:05;;;;;;;0.00;0.00;;;9.70;99.90;;;;;;6307938;22;20003;-69
2021/12/27 06:58:30;;;;;;;0.00;0.00;;;9.60;99.90;;;;;;6307947;22;20078;-68
2021/12/27 07:00:56;;;;;;;0.00;0.00;;;9.60;99.90;;;;;;6304821;22;20446;-68
2021/12/27 07:03:22;;;;;;;0.00;0.00;;;9.60;99.90;;;;;;6308351;22;20003;-67
2021/12/27 07:05:48;;;;;;;0.00;0.00;;;9.70;99.90;;;;;;6307913;22;20000;-68
2021/12/27 07:08:15;;;;;;;0.00;0.00;;;9.70;99.90;;;;;;6309295;22;20108;-68
2021/12/27 07:10:40;;;;;;;0.00;0.00;;;9.70;99.90;;;;;;6307863;22;20007;-68
2021/12/27 07:13:06;;;;;;;0.00;0.00;;;9.80;99.90;;;;;;6308147;22;20005;-68
2021/12/27 07:15:33;;;;;;;0.00;0.00;;;9.90;99.90;;;;;;6308628;22;20000;-68
2021/12/27 07:17:58;;;;;;;0.00;0.00;;;9.90;99.90;;;;;;6308399;22;20082;-68
2021/12/27 07:20:24;;;;;;;0.00;0.00;;;9.90;99.90;;;;;;6307785;22;20003;-68
2021/12/27 07:22:50;;;;;;;0.00;0.00;;;9.90;99.90;;;;;;6309185;22;20368;-69
2021/12/27 07:25:16;;;;;;;0.00;0.00;;;9.90;99.90;;;;;;6309308;22;20374;-68
2021/12/27 07:27:42;;;;;;;0.00;0.00;;;10.00;99.90;;;;;;6306878;22;19995;-70
2021/12/27 07:30:11;;;;;;;0.00;0.00;;;9.90;99.90;;;;;;6280775;22;20003;-69
2021/12/27 07:32:37;;;;;;;0.00;0.00;;;10.00;99.90;;;;;;6304977;22;20003;-69
2021/12/27 07:35:04;;;;;;;0.00;0.00;;;10.00;99.90;;;;;;6280169;22;20003;-70
2021/12/27 07:37:30;;;;;;;0.00;0.00;;;9.90;99.90;;;;;;6280043;22;20566;-69
2021/12/27 07:39:56;;;;;;;0.00;0.00;;;10.00;99.90;;;;;;6306297;22;20223;-70
2021/12/27 07:42:22;;;;;;;0.00;0.00;;;10.00;99.90;;;;;;6306468;22;20227;-69
2021/12/27 07:44:48;;;;;;;0.00;0.00;;;10.00;99.90;;;;;;6307814;22;20089;-70
2021/12/27 07:47:14;;;;;;;0.00;0.00;;;10.00;99.90;;;;;;6306297;22;19995;-68
2021/12/27 07:49:40;;;;;;;0.00;0.00;;;10.00;99.90;;;;;;6279101;22;20017;-69
2021/12/27 07:52:06;;;;;;;0.00;0.00;;;9.90;99.90;;;;;;6305063;22;19995;-67
2021/12/27 07:54:33;;;;;;;0.00;0.00;;;9.90;99.90;;;;;;6306337;22;20014;-69
2021/12/27 07:57:00;;;;;;;;;;;10.00;99.90;;;;;;6305467;22;20038;-68
2021/12/27 07:59:28;;;;;;;0.00;0.00;;;10.00;99.90;;;;;;6306246;22;19898;-69
2021/12/27 08:01:54;;;;;;;0.00;0.00;;;10.00;99.90;;;;;;6305792;22;20048;-69
2021/12/27 08:04:19;;;;;;;0.00;0.00;;;10.00;99.90;;;;;;6306140;22;20111;-69
2021/12/27 08:06:45;;;;;;;0.00;0.00;;;10.00;99.90;;;;;;6306173;22;20026;-68
2021/12/27 08:09:11;;;;;;;0.00;0.00;;;10.00;99.90;;;;;;6306521;22;20011;-68
2021/12/27 08:11:37;;;;;;;0.00;0.00;;;10.10;99.90;;;;;;6307440;22;20006;-68
2021/12/27 08:14:04;;;;;;;0.00;0.00;;;10.10;99.90;;;;;;6278446;22;20048;-69
2021/12/27 08:16:29;;;;;;;0.00;0.00;;;10.00;99.90;;;;;;6306050;22;19995;-68
2021/12/27 08:18:56;;;;;;;0.00;0.00;;;10.10;99.90;;;;;;6306314;22;20009;-68
2021/12/27 08:21:23;;;;;;;0.00;0.00;;;10.10;99.90;;;;;;6306752;22;19992;-69
2021/12/27 08:23:49;;;;;;;0.00;0.00;;;10.10;99.90;;;;;;6309798;22;20004;-68
2021/12/27 08:26:15;;;;;;;0.00;0.00;;;10.00;99.90;;;;;;6281807;22;20431;-68
2021/12/27 08:28:42;;;;;;;0.00;0.00;;;10.10;99.90;;;;;;6307809;22;20027;-67
2021/12/27 08:31:08;;;;;;;0.00;0.00;;;10.10;99.90;;;;;;6279137;22;20546;-68
2021/12/27 08:33:34;;;;;;;0.00;0.00;;;10.10;99.90;;;;;;6276347;22;20045;-68
2021/12/27 08:36:01;;;;;;;0.00;0.00;;;10.10;99.90;;;;;;6308308;22;20015;-68
2021/12/27 08:38:27;;;;;;;0.00;0.00;;;10.20;99.90;;;;;;6307688;22;20426;-69
2021/12/27 08:40:52;;;;;;;0.00;0.00;;;10.10;99.90;;;;;;6306149;22;20342;-68
2021/12/27 08:43:18;;;;;;;0.00;0.00;;;10.10;99.90;;;;;;6309484;22;20015;-68
2021/12/27 08:45:44;;;;;;;0.00;0.00;;;10.20;99.90;;;;;;6308034;22;20051;-69
2021/12/27 08:48:10;;;;;;;0.00;0.00;;;10.10;99.90;;;;;;6307352;22;20405;-68
2021/12/27 08:50:37;;;;;;;0.00;0.00;;;10.10;99.90;;;;;;6306653;22;20078;-69
2021/12/27 08:53:05;;;;;;;0.00;0.00;;;10.20;99.90;;;;;;6307469;22;20055;-69
2021/12/27 08:55:35;;;;;;;0.00;0.00;;;10.20;99.90;;;;;;6306159;22;20003;-69
2021/12/27 08:58:04;;;;;;;0.00;0.00;;;10.30;99.90;;;;;;6306923;22;20003;-68
2021/12/27 09:00:31;;;;;;;0.00;0.00;;;10.20;99.90;;;;;;6307644;22;20014;-68
2021/12/27 09:02:57;;;;;;;0.00;0.00;;;10.30;99.90;;;;;;6309069;22;20000;-69
2021/12/27 09:05:23;;;;;;;0.00;0.00;;;10.30;99.90;;;;;;6307849;22;20000;-71
2021/12/27 09:07:49;;;;;;;0.00;0.00;;;10.30;99.90;;;;;;6311213;22;20015;-70
2021/12/27 09:10:15;;;;;;;0.00;0.00;;;10.30;99.90;;;;;;6311558;22;20022;-68
2021/12/27 09:12:40;;;;;;;0.00;0.00;;;10.30;99.90;;;;;;6309384;22;20099;-68
2021/12/27 09:15:08;;;;;;;0.00;0.00;;;10.20;99.90;;;;;;6310668;22;20089;-69
2021/12/27 09:17:33;;;;;;;0.00;0.00;;;10.20;99.90;;;;;;6310115;22;20003;-70
2021/12/27 09:19:59;;;;;;;0.00;0.00;;;10.20;99.90;;;;;;6310952;22;20064;-70
2021/12/27 09:22:25;;;;;;;0.00;0.00;;;10.20;99.90;;;;;;6311659;22;19999;-69
2021/12/27 09:24:51;;;;;;;0.00;0.00;;;10.30;99.90;;;;;;6312497;22;20005;-68
2021/12/27 09:27:18;;;;;;;0.00;0.00;;;10.30;99.90;;;;;;6310390;22;20079;-68
2021/12/27 09:29:43;;;;;;;0.00;0.00;;;10.20;99.90;;;;;;6284217;22;19999;-68
2021/12/27 09:32:13;;;;;;;0.00;0.00;;;10.20;99.90;;;;;;6311091;22;19999;-69
2021/12/27 09:34:39;;;;;;;0.00;0.00;;;10.20;99.90;;;;;;6311646;22;20132;-68
2021/12/27 09:37:06;;;;;;;0.00;0.00;;;10.30;99.90;;;;;;6309981;22;20496;-69
2021/12/27 09:39:32;;;;;;;0.00;0.00;;;10.30;99.90;;;;;;6310841;22;20045;-69
2021/12/27 09:41:58;;;;;;;;;;;10.40;99.90;;;;;;6310812;22;20388;-68
2021/12/27 09:44:24;;;;;;;0.00;0.00;;;10.40;99.90;;;;;;6310710;22;19899;-68
2021/12/27 09:46:50;;;;;;;0.00;0.00;;;10.50;99.90;;;;;;6311453;22;20038;-67
2021/12/27 09:49:17;;;;;;;0.00;0.00;;;10.50;99.90;;;;;;6310788;22;20101;-67
2021/12/27 09:51:44;;;;;;;0.00;0.00;;;10.60;99.90;;;;;;6311054;22;20006;-69
2021/12/27 09:54:09;;;;;;;0.00;0.00;;;10.60;99.90;;;;;;6309691;22;20002;-69
2021/12/27 09:56:36;;;;;;;0.00;0.00;;;10.70;99.90;;;;;;6309955;22;20004;-71
2021/12/27 09:59:03;;;;;;;0.00;0.00;;;10.80;99.90;;;;;;6310420;22;20082;-70
2021/12/27 10:01:28;;;;;;;0.00;0.00;;;10.90;99.90;;;;;;6283097;22;20541;-69
2021/12/27 10:03:57;;;;;;;0.00;0.00;;;10.90;99.90;;;;;;6310179;22;20002;-67
2021/12/27 10:06:24;;;;;;;0.00;0.00;;;11.00;99.90;;;;;;6282511;22;20007;-67
2021/12/27 10:08:59;;;;;;;0.00;0.00;;;11.00;99.90;;;;;;6310297;22;20007;-68
2021/12/27 10:11:34;;;;;;;0.00;0.00;;;11.00;99.90;;;;;;6311402;22;20006;-73
2021/12/27 10:14:13;;;;;;;0.00;0.00;;;11.00;99.90;;;;;;6310403;22;20018;-68
2021/12/27 10:17:04;;;;;;;0.00;0.00;;;11.10;99.90;;;;;;6308882;22;20042;-70
2021/12/27 10:19:33;;;;;;;0.00;0.00;;;11.00;99.90;;;;;;6306521;22;20074;-71
2021/12/27 10:21:58;;;;;;;0.00;0.00;;;11.00;99.90;;;;;;6308193;22;20030;-69
2021/12/27 10:24:27;;;;;;;0.00;0.00;;;11.00;99.90;;;;;;6315552;22;20003;-69
2021/12/27 10:26:55;;;;;;;0.50;0.50;;;10.90;99.90;;;;;;6311811;22;20003;-69
2021/12/27 10:29:23;;;;;;;2.85;2.65;;;10.90;99.90;;;;;;6310454;22;20007;-68
2021/12/27 10:31:52;;;;;;;5.45;4.90;;;10.80;99.90;;;;;;6315227;22;20059;-69
2021/12/27 10:34:19;;;;;;;8.48;7.72;;;10.80;99.90;;;;;;6312103;22;20068;-70
2021/12/27 10:37:12;;;;;;;6.03;0.90;;;10.80;99.90;;;;;;6309763;22;20011;-67
2021/12/27 10:39:45;;;;;;;7.80;1.08;;;10.90;99.90;;;;;;6309037;22;20003;-68
2021/12/27 10:42:14;;;;;;;4.45;1.13;;;10.80;99.90;;;;;;6306860;22;20002;-70
2021/12/27 10:44:40;;;;;;;4.43;1.45;;;10.80;99.90;;;;;;6309112;22;20373;-68
2021/12/27 10:47:26;;;;;;;;;;;10.90;99.90;;;;;;6310578;22;20361;-70
2021/12/27 10:49:53;;;;;;;4.30;1.30;;;10.80;99.90;;;;;;6307140;22;19909;-68
2021/12/27 10:52:19;;;;;;;4.93;1.20;;;10.90;99.90;;;;;;6308213;22;20003;-69
2021/12/27 10:54:45;;;;;;;3.67;1.00;;;10.90;99.90;;;;;;6305782;22;20096;-68
2021/12/27 10:57:11;;;;;;;2.88;1.08;;;10.90;99.90;;;;;;6309617;22;20010;-69
2021/12/27 10:59:37;;;;;;;2.72;0.68;;;11.00;99.90;;;;;;6309497;22;19999;-69
2021/12/27 11:02:10;;;;;;;4.82;0.80;;;10.90;99.90;;;;;;6280271;22;20424;-70
2021/12/27 11:04:38;;;;;;;1.85;0.95;;;10.80;99.90;;;;;;6279743;22;20011;-71
2021/12/27 11:07:05;;;;;;;2.20;0.82;;;10.80;99.90;;;;;;6303028;22;20434;-73
2021/12/27 11:09:33;;;;;;;1.83;0.70;;;10.80;99.90;;;;;;6304664;22;20018;-69
2021/12/27 11:12:00;;;;;;;3.60;1.05;;;10.70;99.90;;;;;;6305655;22;20498;-68
2021/12/27 11:14:26;;;;;;;3.28;1.08;;;10.80;99.90;;;;;;6308133;22;20158;-69
2021/12/27 11:16:53;;;;;;;2.53;0.93;;;10.80;99.90;;;;;;6310657;22;19999;-69
2021/12/27 11:19:19;;;;;;;2.90;0.70;;;10.70;99.90;;;;;;6307640;22;19995;-71
2021/12/27 11:21:48;;;;;;;2.17;1.00;;;10.70;99.90;;;;;;6302155;22;19999;-70
2021/12/27 11:24:14;;;;;;;2.00;1.00;;;10.70;99.90;;;;;;6302114;22;20014;-71
2021/12/27 11:26:44;;;;;;;1.20;0.88;;;10.80;99.90;;;;;;6301529;22;20006;-71
2021/12/27 11:29:17;;;;;;;2.95;0.90;;;10.80;99.90;;;;;;6302345;22;20058;-72
2021/12/27 11:32:28;;;;;;;3.70;0.80;;;10.80;99.90;;;;;;6274307;22;20042;-72
2021/12/27 11:34:57;;;;;;;3.20;0.93;;;10.70;99.90;;;;;;6295727;22;20007;-70
2021/12/27 11:37:42;;;;;;;1.92;1.00;;;10.80;99.90;;;;;;6275393;22;20703;-69
2021/12/27 11:40:15;;;;;;;2.22;0.98;;;10.80;99.90;;;;;;6302006;22;20006;-69
2021/12/27 11:43:13;;;;;;;1.15;0.80;;;10.90;99.90;;;;;;6302785;22;19996;-70
2021/12/27 11:45:54;;;;;;;1.80;0.90;;;10.90;99.90;;;;;;6216379;22;20042;-70
2021/12/27 11:48:25;;;;;;;2.72;0.85;;;10.70;99.90;;;;;;6302113;22;20419;-70
2021/12/27 11:51:08;;;;;;;2.28;0.70;;;10.70;99.90;;;;;;6301939;22;20052;-69
2021/12/27 11:53:44;;;;;;;3.03;0.80;;;10.80;99.90;;;;;;6300986;22;20050;-69
2021/12/27 11:56:16;;;;;;;1.63;0.80;;;10.80;99.90;;;;;;6302679;22;20343;-70
2021/12/27 11:58:46;;;;;;;2.13;1.00;;;11.00;99.90;;;;;;6301215;22;20010;-72
2021/12/27 12:01:20;;;;;;;7.45;1.10;;;11.00;99.90;;;;;;6302457;22;20007;-70
2021/12/27 12:03:47;;;;;;;9.82;6.00;;;11.00;99.90;;;;;;6302474;22;20003;-71
2021/12/27 12:06:42;;;;;;;5.93;2.60;;;11.10;99.90;;;;;;6301926;22;19995;-70
2021/12/27 12:09:19;;;;;;;6.10;2.00;;;11.10;99.90;;;;;;6275661;22;20094;-70
2021/12/27 12:11:58;;;;;;;4.20;1.80;;;11.00;99.90;;;;;;6303155;22;20295;-73
2021/12/27 12:14:33;;;;;;;9.68;2.08;;;11.10;99.90;;;;;;6301541;22;20004;-70
2021/12/27 12:17:03;;;;;;;14.90;4.88;;;11.20;99.90;;;;;;6302218;22;19999;-71
2021/12/27 12:19:42;;;;;;;20.70;5.10;;;11.20;99.90;;;;;;6301337;22;20040;-70
2021/12/27 12:22:33;;;;;;;10.65;3.65;;;11.40;99.90;;;;;;6302934;22;20003;-70
2021/12/27 12:25:13;;;;;;;19.30;5.20;;;11.40;99.90;;;;;;6302036;22;20460;-69
2021/12/27 12:27:58;;;;;;;25.13;6.57;;;11.40;99.90;;;;;;6302391;22;20008;-72
2021/12/27 12:30:32;;;;;;;17.40;3.95;;;11.50;99.90;;;;;;6301364;22;20507;-69
2021/12/27 12:33:00;;;;;;;25.90;4.53;;;11.70;99.90;;;;;;6274954;22;20011;-71
2021/12/27 12:35:45;;;;;;;26.05;4.45;;;11.80;99.90;;;;;;6302312;22;20082;-71
2021/12/27 12:38:19;;;;;;;32.55;4.35;;;12.00;99.90;;;;;;6301551;22;20291;-69
2021/12/27 12:41:03;;;;;;;37.22;5.38;;;12.20;99.90;;;;;;6301511;22;20003;-69
2021/12/27 12:43:41;;;;;;;36.45;5.00;;;12.40;99.90;;;;;;6303983;22;20458;-69
2021/12/27 12:46:35;;;;;;;36.75;4.80;;;12.50;99.90;;;;;;6303555;22;20003;-72
2021/12/27 12:49:01;;;;;;;46.90;5.22;;;12.80;99.90;;;;;;6305146;22;19999;-69
2021/12/27 12:51:36;;;;;;;57.17;6.55;;;12.90;99.90;;;;;;6303532;22;20523;-71
2021/12/27 12:54:04;;;;;;;51.97;6.95;;;13.00;99.90;;;;;;6301666;22;19996;-70
2021/12/27 12:56:33;;;;;;;42.25;6.22;;;13.00;99.90;;;;;;6303508;22;20003;-69
2021/12/27 12:58:59;;;;;;;57.63;7.97;;;13.00;99.90;;;;;;6300754;22;20812;-68
2021/12/27 13:01:25;;;;;;;62.67;8.40;;;12.90;99.90;;;;;;6303992;22;20030;-70